Time;durP1;ratioP1;P1;durP2;ratioP2;P2;SDS_P1;SDS_P2;PMS_P1;PMS_P2;Temp;Humidity;BMP_temperature;BMP_pressure;BME280_temperature;BME280_humidity;BME280_pressure;Samples;Min_cycle;Max_cycle;Signal;HPM_P1;HPM_P2
2024/01/25 00:01:26;;;;;;;16.80;4.03;;;9.60;78.40;;;10.60;58.81;98754.66;5068739;28;20048;-64
2024/01/25 00:03:53;;;;;;;15.60;4.23;;;9.70;78.70;;;10.76;58.77;98750.63;5070100;28;20048;-64
2024/01/25 00:06:21;;;;;;;17.60;4.60;;;9.70;78.60;;;10.72;58.75;98754.53;5070549;28;20499;-64
2024/01/25 00:08:49;;;;;;;14.57;4.03;;;9.70;78.50;;;10.61;59.07;98760.81;5069082;28;20040;-64
2024/01/25 00:11:17;;;;;;;11.30;3.60;;;9.60;78.50;;;10.68;58.94;98766.44;5070556;28;20092;-64
2024/01/25 00:13:45;;;;;;;17.10;6.03;;;9.70;79.00;;;10.76;58.62;98762.16;5070178;28;20052;-64
2024/01/25 00:16:12;;;;;;;12.57;4.07;;;9.70;78.50;;;10.64;59.26;98753.41;5070618;28;20080;-64
2024/01/25 00:18:40;;;;;;;16.40;4.57;;;9.70;79.10;;;10.69;59.36;98757.50;5070495;28;20049;-64
2024/01/25 00:21:08;;;;;;;10.20;3.80;;;9.70;79.00;;;10.74;59.32;98753.44;5062922;28;20036;-65
2024/01/25 00:23:36;;;;;;;12.37;3.20;;;9.70;79.20;;;10.69;59.35;98750.34;5070231;28;20052;-64
2024/01/25 00:26:04;;;;;;;17.33;4.13;;;9.70;79.20;;;10.54;59.91;98763.16;5070356;28;20044;-64
2024/01/25 00:28:33;;;;;;;9.60;3.37;;;9.70;79.80;;;10.55;60.10;98766.69;5070422;28;20055;-64
2024/01/25 00:31:01;;;;;;;18.83;5.63;;;9.70;80.00;;;10.56;60.26;98760.38;5069241;28;20103;-64
2024/01/25 00:33:28;;;;;;;13.57;4.37;;;9.70;80.20;;;10.43;60.80;98756.13;5070155;28;20053;-64
2024/01/25 00:35:57;;;;;;;10.77;3.60;;;9.70;80.40;;;10.44;60.56;98751.63;5070389;28;20071;-64
2024/01/25 00:38:26;;;;;;;20.13;3.70;;;9.70;80.80;;;10.55;60.71;98759.53;5070456;28;20048;-64
2024/01/25 00:40:54;;;;;;;12.60;3.00;;;9.70;80.80;;;10.54;60.62;98749.84;5068731;28;20044;-64
2024/01/25 00:43:22;;;;;;;7.33;3.00;;;9.70;80.90;;;10.55;61.08;98748.06;5068817;28;20047;-64
2024/01/25 00:45:52;;;;;;;16.67;3.10;;;9.70;81.20;;;10.58;60.60;98745.09;5070318;28;20047;-64
2024/01/25 00:48:20;;;;;;;10.37;3.27;;;9.70;81.20;;;10.47;61.47;98745.19;5071164;28;20041;-64
2024/01/25 00:50:48;;;;;;;15.03;4.17;;;9.70;81.50;;;10.53;61.41;98736.69;5074404;28;20036;-64
2024/01/25 00:53:16;;;;;;;16.27;5.47;;;9.70;81.70;;;10.52;61.10;98737.66;5073899;28;20071;-64
2024/01/25 00:55:44;;;;;;;14.47;4.13;;;9.70;81.80;;;10.52;61.31;98735.00;5073739;28;20049;-64
2024/01/25 00:58:11;;;;;;;15.30;3.83;;;9.70;81.90;;;10.64;61.20;98736.56;5066172;28;20472;-64
2024/01/25 01:00:39;;;;;;;16.90;3.40;;;9.70;82.10;;;10.49;61.62;98736.13;5072755;28;20100;-64
2024/01/25 01:03:08;;;;;;;7.37;3.33;;;9.70;82.40;;;10.54;61.32;98746.34;5072234;28;20416;-64
2024/01/25 01:05:36;;;;;;;15.50;4.10;;;9.70;82.50;;;10.58;61.65;98742.44;5073795;28;20041;-64
2024/01/25 01:08:05;;;;;;;17.37;4.80;;;9.80;82.60;;;10.45;61.91;98737.38;5072311;28;20048;-64
2024/01/25 01:10:32;;;;;;;18.47;3.43;;;9.70;82.60;;;10.48;62.01;98733.59;5072590;28;20295;-65
2024/01/25 01:13:00;;;;;;;10.57;3.03;;;9.70;82.90;;;10.41;62.20;98726.13;5071957;28;20055;-65
2024/01/25 01:15:28;;;;;;;18.30;4.60;;;9.70;82.70;;;10.57;61.36;98724.78;5073536;28;20045;-64
2024/01/25 01:17:55;;;;;;;11.83;3.23;;;9.80;82.20;;;10.46;61.69;98720.41;5073436;28;20158;-65
2024/01/25 01:20:23;;;;;;;10.70;3.50;;;9.70;81.80;;;10.41;62.20;98727.94;5073528;28;20437;-64
2024/01/25 01:22:52;;;;;;;10.80;3.57;;;9.70;82.00;;;10.34;62.26;98718.81;5072912;28;20159;-64
2024/01/25 01:25:19;;;;;;;16.83;3.43;;;9.70;82.50;;;10.39;62.33;98725.44;5072043;28;20048;-64
2024/01/25 01:27:47;;;;;;;12.87;2.93;;;9.70;82.00;;;10.38;61.82;98731.72;5073285;28;20053;-64
2024/01/25 01:30:15;;;;;;;14.70;4.00;;;9.70;82.00;;;10.29;62.25;98728.97;5062960;28;20064;-64
2024/01/25 01:32:43;;;;;;;15.80;5.60;;;9.60;81.60;;;10.22;62.38;98728.69;5072994;28;20044;-64
2024/01/25 01:35:10;;;;;;;8.80;3.10;;;9.60;81.70;;;10.28;62.31;98733.47;5070914;28;20036;-64
2024/01/25 01:37:38;;;;;;;15.83;4.03;;;9.60;81.60;;;10.36;62.18;98720.38;5073211;28;20037;-64
2024/01/25 01:40:07;;;;;;;14.27;4.87;;;9.60;81.70;;;10.16;62.44;98738.03;5072924;28;20492;-64
2024/01/25 01:42:34;;;;;;;15.47;3.43;;;9.60;81.80;;;10.27;62.29;98738.91;5072712;28;20105;-65
2024/01/25 01:45:02;;;;;;;13.83;3.33;;;9.60;82.30;;;10.30;62.50;98742.19;5072842;28;20041;-64
2024/01/25 01:47:30;;;;;;;8.90;2.93;;;9.60;82.10;;;10.26;62.52;98724.78;5071590;28;20067;-65
2024/01/25 01:49:58;;;;;;;7.80;3.43;;;9.60;82.20;;;10.23;62.14;98731.19;5071772;28;20048;-64
2024/01/25 01:52:26;;;;;;;20.33;3.97;;;9.60;82.10;;;10.33;62.07;98738.41;5072634;28;20044;-64
2024/01/25 01:54:54;;;;;;;10.63;3.13;;;9.60;82.30;;;10.31;62.24;98759.84;5072536;28;20104;-64
2024/01/25 01:57:22;;;;;;;14.27;3.40;;;9.50;82.10;;;10.35;61.59;98728.47;5072702;28;20071;-65
2024/01/25 01:59:50;;;;;;;10.20;2.90;;;9.60;81.80;;;10.30;61.70;98736.88;5072508;28;20059;-64
2024/01/25 02:02:17;;;;;;;15.27;3.57;;;9.50;81.70;;;10.35;61.78;98740.00;5064263;28;20068;-64
2024/01/25 02:04:45;;;;;;;11.47;5.20;;;9.50;81.40;;;10.27;61.67;98728.28;5072183;28;20408;-64
2024/01/25 02:07:14;;;;;;;10.10;3.73;;;9.50;82.20;;;10.31;61.81;98725.22;5072253;28;20514;-64
2024/01/25 02:09:42;;;;;;;15.00;3.70;;;9.60;82.10;;;10.29;61.81;98716.50;5071201;28;20048;-64
2024/01/25 02:12:09;;;;;;;9.67;3.47;;;9.50;81.40;;;10.27;61.94;98717.63;5072054;28;20052;-64
2024/01/25 02:14:37;;;;;;;17.40;4.03;;;9.50;81.80;;;10.27;61.51;98726.44;5070738;28;20037;-64
2024/01/25 02:17:05;;;;;;;11.40;3.30;;;9.50;81.80;;;10.32;61.27;98716.28;5071021;28;20047;-64
2024/01/25 02:19:32;;;;;;;9.80;3.37;;;9.50;81.00;;;10.37;61.07;98724.72;5072322;28;20041;-64
2024/01/25 02:22:04;;;;;;;11.87;3.33;;;9.50;81.00;;;10.11;61.75;98724.28;5071774;28;20040;-64
2024/01/25 02:24:32;;;;;;;12.80;4.47;;;9.40;80.70;;;10.12;61.94;98725.97;5071591;28;20055;-65
2024/01/25 02:27:01;;;;;;;16.57;3.37;;;9.40;81.30;;;10.17;61.72;98728.22;5071947;28;20040;-64
2024/01/25 02:29:29;;;;;;;9.73;3.07;;;9.40;82.00;;;10.28;61.83;98729.97;5070807;28;20416;-64
2024/01/25 02:31:57;;;;;;;13.83;2.90;;;9.40;81.80;;;10.20;61.68;98728.81;5072027;28;20051;-64
2024/01/25 02:34:24;;;;;;;15.53;4.63;;;9.40;81.60;;;10.19;61.82;98732.44;5069601;28;20049;-64
2024/01/25 02:36:52;;;;;;;10.57;3.40;;;9.40;81.90;;;10.24;62.01;98738.22;5071858;28;20404;-64
2024/01/25 02:39:20;;;;;;;8.87;4.10;;;9.40;82.40;;;10.32;61.26;98742.06;5063294;28;20040;-65
2024/01/25 02:41:47;;;;;;;9.77;3.63;;;9.40;82.10;;;10.19;61.63;98731.59;5071621;28;20037;-65
2024/01/25 02:44:15;;;;;;;10.97;3.73;;;9.40;81.30;;;10.37;61.00;98738.03;5070879;28;20051;-65
2024/01/25 02:46:44;;;;;;;13.77;3.73;;;9.40;81.30;;;10.43;61.26;98739.31;5071778;28;20036;-65
2024/01/25 02:49:12;;;;;;;13.00;3.50;;;9.50;81.60;;;10.42;60.87;98734.97;5071479;28;20397;-64
2024/01/25 02:51:40;;;;;;;16.73;3.87;;;9.40;81.90;;;10.48;61.03;98749.56;5070295;28;20071;-64
2024/01/25 02:54:07;;;;;;;14.80;2.70;;;9.40;81.40;;;10.48;60.72;98742.41;5070899;28;20040;-64
2024/01/25 02:56:35;;;;;;;12.43;4.67;;;9.50;80.90;;;10.46;60.95;98739.03;5071530;28;20511;-64
2024/01/25 02:59:03;;;;;;;16.10;4.40;;;9.40;81.30;;;10.39;60.72;98740.53;5071719;28;20036;-64
2024/01/25 03:01:41;;;;;;;16.60;3.43;;;9.40;81.70;;;10.35;60.81;98742.66;5071333;28;20043;-64
2024/01/25 03:04:09;;;;;;;12.17;3.60;;;9.40;81.30;;;10.40;61.00;98751.06;5070534;28;20045;-64
2024/01/25 03:06:37;;;;;;;12.73;3.87;;;9.40;81.60;;;10.19;61.22;98750.22;5071372;28;20511;-64
2024/01/25 03:09:05;;;;;;;13.57;3.27;;;9.30;81.60;;;10.27;61.28;98749.56;5070018;28;20044;-64
2024/01/25 03:11:33;;;;;;;16.97;3.17;;;9.30;81.70;;;10.38;60.71;98742.38;5069240;28;20049;-64
2024/01/25 03:14:00;;;;;;;10.20;3.13;;;9.40;81.30;;;10.33;60.72;98749.06;5069433;28;20044;-64
2024/01/25 03:16:28;;;;;;;11.63;3.97;;;9.40;80.90;;;10.22;61.13;98749.97;5070807;28;20048;-65
2024/01/25 03:18:56;;;;;;;8.77;3.27;;;9.30;81.50;;;10.32;60.50;98758.88;5071131;28;20416;-64
2024/01/25 03:21:23;;;;;;;9.63;3.13;;;9.30;81.60;;;10.32;60.47;98760.69;5062731;28;20040;-65
2024/01/25 03:23:51;;;;;;;9.20;3.00;;;9.30;80.90;;;10.23;60.77;98767.59;5068985;28;20051;-64
2024/01/25 03:26:19;;;;;;;11.87;3.30;;;9.20;81.00;;;10.22;60.87;98763.28;5070678;28;20048;-64
2024/01/25 03:28:47;;;;;;;11.60;4.13;;;9.20;81.10;;;10.15;60.53;98764.75;5070938;28;20043;-64
2024/01/25 03:31:14;;;;;;;13.13;4.50;;;9.20;80.70;;;10.19;60.49;98763.53;5070793;28;20048;-64
2024/01/25 03:33:42;;;;;;;9.27;3.70;;;9.20;80.20;;;10.38;60.33;98773.47;5068699;28;20075;-64
2024/01/25 03:36:17;;;;;;;13.47;4.60;;;9.30;80.60;;;10.43;59.72;98777.44;5070612;28;20095;-64
2024/01/25 03:38:45;;;;;;;19.20;4.47;;;9.30;80.30;;;10.38;60.28;98776.13;5070635;28;20492;-64
2024/01/25 03:41:13;;;;;;;13.17;3.50;;;9.30;80.80;;;10.43;59.80;98780.09;5070586;28;20523;-64
2024/01/25 03:43:40;;;;;;;12.10;3.83;;;9.30;80.30;;;10.42;60.03;98783.72;5070291;28;20044;-64
2024/01/25 03:46:12;;;;;;;14.10;3.60;;;9.30;80.50;;;10.34;59.71;98780.03;5070577;28;20033;-64
2024/01/25 03:48:40;;;;;;;12.67;3.30;;;9.20;80.30;;;10.19;60.42;98793.63;5068622;28;20045;-64
2024/01/25 03:51:08;;;;;;;14.40;3.63;;;9.10;81.00;;;10.41;59.77;98792.69;5070527;28;20032;-64
2024/01/25 03:53:36;;;;;;;14.33;4.10;;;9.20;81.10;;;10.37;60.11;98798.38;5070149;28;20040;-64
2024/01/25 03:56:04;;;;;;;16.93;5.23;;;9.20;81.00;;;10.23;60.08;98789.72;5070107;28;20045;-64
2024/01/25 03:58:31;;;;;;;14.60;3.33;;;9.20;80.70;;;10.23;60.35;98787.06;5070610;28;20041;-63
2024/01/25 04:01:00;;;;;;;13.13;5.53;;;9.10;80.80;;;10.15;60.34;98792.22;5069468;28;20298;-63
2024/01/25 04:03:28;;;;;;;8.10;2.77;;;9.10;81.20;;;10.12;60.42;98795.16;5060635;28;20044;-62
2024/01/25 04:05:55;;;;;;;11.27;3.40;;;9.10;81.20;;;10.16;60.32;98791.25;5070500;28;20036;-62
2024/01/25 04:08:23;;;;;;;15.77;4.50;;;9.10;81.50;;;10.24;60.43;98798.59;5070448;28;20040;-63
2024/01/25 04:10:51;;;;;;;15.50;3.33;;;9.10;81.30;;;10.16;60.46;98795.75;5068806;28;20048;-62
2024/01/25 04:13:18;;;;;;;12.70;4.20;;;9.10;81.30;;;10.13;60.37;98796.81;5069837;28;20520;-62
2024/01/25 04:15:46;;;;;;;11.37;3.47;;;9.10;81.60;;;10.20;60.32;98805.97;5069284;28;20052;-62
2024/01/25 04:18:13;;;;;;;15.57;4.30;;;9.10;80.80;;;10.19;60.22;98806.94;5070329;28;20044;-63
2024/01/25 04:20:43;;;;;;;9.73;3.00;;;9.00;81.00;;;10.08;60.03;98807.03;5052508;28;20056;-63
2024/01/25 04:23:11;;;;;;;11.40;3.20;;;9.10;80.20;;;10.25;59.92;98806.44;5070822;28;20047;-63
2024/01/25 04:25:39;;;;;;;17.90;5.13;;;9.10;80.40;;;10.17;59.85;98800.06;5074517;28;20049;-63
2024/01/25 04:28:06;;;;;;;14.07;4.13;;;9.10;79.90;;;10.22;59.46;98812.00;5074133;28;20040;-63
2024/01/25 04:30:34;;;;;;;9.23;3.67;;;9.10;79.80;;;10.08;60.11;98808.81;5072815;28;20499;-63
2024/01/25 04:33:02;;;;;;;15.57;4.30;;;9.00;79.80;;;10.12;59.59;98819.09;5073347;28;20048;-64
2024/01/25 04:35:31;;;;;;;12.47;3.67;;;9.00;79.60;;;10.04;59.46;98826.84;5072710;28;20045;-63
2024/01/25 04:37:59;;;;;;;16.43;4.03;;;9.00;79.30;;;9.97;59.97;98823.06;5074252;28;20111;-63
2024/01/25 04:40:27;;;;;;;11.53;3.20;;;8.90;79.20;;;9.81;60.51;98837.63;5073942;28;20423;-64
2024/01/25 04:42:54;;;;;;;12.83;3.97;;;8.90;79.40;;;9.89;60.17;98837.00;5072300;28;20045;-62
2024/01/25 04:45:22;;;;;;;19.93;5.07;;;8.90;79.90;;;9.98;59.76;98828.25;5072565;28;20045;-63
2024/01/25 04:47:50;;;;;;;10.67;2.90;;;8.90;79.10;;;10.01;59.71;98829.81;5074060;28;20044;-62
2024/01/25 04:50:17;;;;;;;13.73;3.70;;;8.90;79.40;;;10.03;59.48;98836.66;5072560;28;20056;-62
2024/01/25 04:52:45;;;;;;;13.03;4.10;;;8.90;78.80;;;10.04;58.88;98842.81;5073582;28;20411;-62
2024/01/25 04:55:13;;;;;;;10.63;3.87;;;8.90;78.00;;;9.92;58.46;98839.38;5073434;28;20063;-63
2024/01/25 04:57:40;;;;;;;15.80;3.57;;;8.80;77.20;;;9.82;58.95;98851.75;5072157;28;20045;-63
2024/01/25 05:00:09;;;;;;;15.80;4.13;;;8.80;77.50;;;9.76;58.64;98850.44;5073635;28;20099;-63
2024/01/25 05:02:37;;;;;;;14.30;3.10;;;8.70;78.20;;;9.83;58.83;98845.50;5071894;28;20035;-63
2024/01/25 05:05:05;;;;;;;12.10;3.83;;;8.70;77.40;;;9.89;58.81;98860.94;5072299;28;20041;-63
2024/01/25 05:07:32;;;;;;;12.07;3.47;;;8.70;78.00;;;9.86;58.75;98862.00;5072320;28;20044;-63
2024/01/25 05:10:00;;;;;;;17.97;3.90;;;8.60;78.00;;;9.82;58.47;98859.75;5073331;28;20037;-63
2024/01/25 05:12:28;;;;;;;11.17;3.30;;;8.60;78.10;;;9.77;58.83;98841.50;5072854;28;20496;-63
2024/01/25 05:14:56;;;;;;;10.43;3.40;;;8.60;78.20;;;9.87;58.16;98854.91;5072232;28;20048;-63
2024/01/25 05:17:23;;;;;;;13.70;3.60;;;8.60;77.90;;;9.80;58.20;98859.84;5073320;28;20059;-63
2024/01/25 05:19:51;;;;;;;15.70;3.63;;;8.60;77.60;;;9.71;58.28;98852.63;5071735;28;20044;-63
2024/01/25 05:22:21;;;;;;;13.23;3.27;;;8.50;78.20;;;9.74;58.12;98848.91;5072567;28;20048;-63
2024/01/25 05:24:49;;;;;;;13.40;4.20;;;8.50;78.00;;;9.88;58.14;98853.06;5071522;28;20059;-63
2024/01/25 05:27:20;;;;;;;11.87;3.27;;;8.60;77.80;;;9.66;58.37;98854.84;5073205;28;20058;-64
2024/01/25 05:29:48;;;;;;;11.23;3.57;;;8.50;77.10;;;9.70;58.11;98855.44;5073463;28;20511;-64
2024/01/25 05:32:16;;;;;;;17.37;3.73;;;8.50;77.20;;;9.60;57.95;98864.16;5071695;28;20047;-64
2024/01/25 05:34:44;;;;;;;15.00;4.13;;;8.40;77.10;;;9.54;58.39;98861.16;5071936;28;20067;-64
2024/01/25 05:37:11;;;;;;;14.33;3.87;;;8.30;77.90;;;9.65;58.27;98863.78;5071188;28;20049;-64
2024/01/25 05:39:39;;;;;;;11.60;4.97;;;8.30;78.30;;;9.51;58.58;98862.25;5073095;28;20510;-64
2024/01/25 05:42:08;;;;;;;13.83;3.87;;;8.20;78.70;;;9.51;58.47;98862.25;5072803;28;20484;-64
2024/01/25 05:44:36;;;;;;;14.90;4.83;;;8.30;78.30;;;9.51;58.41;98864.91;5072246;28;20044;-63
2024/01/25 05:47:03;;;;;;;14.30;4.10;;;8.20;79.00;;;9.45;58.64;98868.06;5072803;28;20047;-63
2024/01/25 05:49:31;;;;;;;8.73;3.53;;;8.20;79.30;;;9.45;58.83;98860.94;5071671;28;20044;-63
2024/01/25 05:51:59;;;;;;;16.03;5.07;;;8.20;79.40;;;9.40;58.86;98870.25;5072918;28;20048;-64
2024/01/25 05:54:26;;;;;;;12.33;3.53;;;8.10;80.20;;;9.39;59.20;98866.75;5070643;28;20060;-64
2024/01/25 05:56:54;;;;;;;11.67;3.57;;;8.10;80.20;;;9.30;59.32;98870.13;5072747;28;20052;-64
2024/01/25 05:59:22;;;;;;;19.43;4.97;;;8.00;80.80;;;9.37;59.26;98866.03;5071182;28;20044;-64
2024/01/25 06:01:49;;;;;;;13.93;3.30;;;8.10;81.00;;;9.31;59.71;98866.53;5072714;28;20044;-64
2024/01/25 06:04:17;;;;;;;21.07;4.63;;;8.10;81.50;;;9.17;60.64;98872.94;5071976;28;20048;-64
2024/01/25 06:06:45;;;;;;;11.00;3.67;;;8.00;82.30;;;9.32;60.00;98876.19;5072534;28;20051;-64
2024/01/25 06:09:15;;;;;;;11.30;3.37;;;8.00;82.60;;;9.33;60.06;98872.56;5072613;28;20040;-64
2024/01/25 06:11:43;;;;;;;11.87;3.67;;;8.00;83.00;;;9.21;60.81;98865.59;5064705;28;20044;-63
2024/01/25 06:14:11;;;;;;;18.53;3.40;;;7.90;84.00;;;9.30;60.58;98864.81;5072179;28;20040;-63
2024/01/25 06:16:39;;;;;;;19.00;5.63;;;7.90;83.90;;;9.22;60.75;98877.88;5070978;28;20037;-64
2024/01/25 06:19:07;;;;;;;14.83;3.10;;;7.90;84.80;;;9.19;60.96;98870.16;5072400;28;20052;-64
2024/01/25 06:21:37;;;;;;;12.10;3.60;;;7.90;84.50;;;9.19;60.69;98862.19;5072314;28;20048;-64
2024/01/25 06:24:05;;;;;;;19.13;4.20;;;7.90;84.60;;;9.12;61.39;98855.69;5070686;28;20043;-64
2024/01/25 06:26:33;;;;;;;16.00;3.67;;;7.90;85.00;;;9.16;60.90;98854.47;5070604;28;20043;-64
2024/01/25 06:29:01;;;;;;;13.03;4.20;;;7.90;85.10;;;9.17;61.09;98858.78;5070926;28;20059;-64
2024/01/25 06:31:28;;;;;;;14.83;4.43;;;7.90;85.20;;;9.11;61.63;98854.84;5072336;28;20044;-64
2024/01/25 06:33:56;;;;;;;9.37;3.87;;;7.80;85.60;;;9.19;61.28;98856.88;5071875;28;20052;-65
2024/01/25 06:36:24;;;;;;;12.37;3.83;;;7.90;85.70;;;9.28;61.26;98850.81;5069465;28;20534;-66
2024/01/25 06:38:51;;;;;;;18.90;3.83;;;8.00;85.00;;;9.32;61.08;98846.09;5071575;28;20063;-63
2024/01/25 06:41:19;;;;;;;12.37;3.00;;;8.00;85.00;;;9.41;60.89;98848.84;5071870;28;20052;-65
2024/01/25 06:43:47;;;;;;;12.17;3.30;;;8.00;84.50;;;9.47;60.40;98852.84;5071015;28;20519;-63
2024/01/25 06:46:14;;;;;;;20.37;5.27;;;8.10;84.20;;;9.47;60.55;98850.19;5071608;28;20439;-62
2024/01/25 06:48:42;;;;;;;13.30;5.20;;;8.10;84.00;;;9.52;60.44;98858.63;5071719;28;20033;-62
2024/01/25 06:51:10;;;;;;;14.33;3.30;;;8.10;83.90;;;9.56;60.37;98870.72;5071596;28;20033;-63
2024/01/25 06:53:37;;;;;;;16.43;4.90;;;8.10;83.80;;;9.54;60.24;98879.75;5071381;28;20519;-61
2024/01/25 06:56:05;;;;;;;16.60;4.77;;;8.10;84.10;;;9.61;60.15;98891.59;5071708;28;20052;-61
2024/01/25 06:58:33;;;;;;;12.63;4.27;;;8.20;83.80;;;9.64;59.87;98892.19;5071385;28;20048;-61
2024/01/25 07:01:01;;;;;;;12.83;3.53;;;8.10;83.70;;;9.64;59.78;98904.66;5071815;28;20383;-62
2024/01/25 07:03:29;;;;;;;13.03;3.67;;;8.10;83.40;;;9.65;59.79;98915.16;5069847;28;20389;-61
2024/01/25 07:05:57;;;;;;;13.47;4.47;;;8.20;83.20;;;9.66;60.19;98916.00;5071070;28;20036;-62
2024/01/25 07:08:24;;;;;;;11.70;3.67;;;8.20;83.50;;;9.67;59.94;98912.34;5070043;28;20052;-60
2024/01/25 07:10:52;;;;;;;14.13;4.20;;;8.20;83.50;;;9.68;59.76;98919.38;5069557;28;20045;-63
2024/01/25 07:13:20;;;;;;;18.73;4.13;;;8.20;83.70;;;9.68;59.69;98922.03;5069055;28;20052;-65
2024/01/25 07:15:48;;;;;;;11.60;4.23;;;8.10;83.70;;;9.71;59.81;98924.44;5071018;28;20067;-65
2024/01/25 07:18:17;;;;;;;14.33;4.27;;;8.10;83.80;;;9.70;59.57;98922.75;5071402;28;20056;-64
2024/01/25 07:20:45;;;;;;;14.37;3.43;;;8.10;84.10;;;9.73;59.56;98930.50;5070986;28;20044;-65
2024/01/25 07:23:13;;;;;;;18.17;4.27;;;8.10;84.00;;;9.74;59.60;98940.16;5069067;28;20048;-65
2024/01/25 07:25:40;;;;;;;15.03;4.80;;;8.10;84.10;;;9.72;59.67;98930.63;5071043;28;20420;-65
2024/01/25 07:28:08;;;;;;;14.67;4.40;;;8.10;84.50;;;9.71;59.85;98928.91;5069161;28;20373;-64
2024/01/25 07:30:36;;;;;;;10.00;3.90;;;8.10;84.70;;;9.71;59.90;98935.06;5068738;28;20496;-64
2024/01/25 07:33:04;;;;;;;17.73;4.23;;;8.10;84.50;;;9.68;59.59;98931.84;5068427;28;20044;-64
2024/01/25 07:35:32;;;;;;;16.73;4.23;;;8.00;84.70;;;9.64;59.96;98937.38;5070549;28;20048;-65
2024/01/25 07:38:00;;;;;;;17.03;4.50;;;7.90;85.10;;;9.62;59.83;98931.34;5070782;28;20051;-65
2024/01/25 07:40:27;;;;;;;13.87;3.37;;;7.90;85.30;;;9.56;60.00;98925.69;5070610;28;20044;-66
2024/01/25 07:42:55;;;;;;;25.20;5.13;;;7.90;85.80;;;9.58;60.09;98937.88;5070244;28;20048;-67
2024/01/25 07:45:23;;;;;;;13.97;4.70;;;7.90;85.60;;;9.52;60.18;98926.88;5070803;28;20052;-65
2024/01/25 07:47:51;;;;;;;12.47;4.83;;;7.90;86.10;;;9.54;60.01;98930.25;5061706;28;20043;-64
2024/01/25 07:50:31;;;;;;;19.50;4.60;;;7.90;85.90;;;9.57;60.12;98935.34;5070813;28;20500;-63
2024/01/25 07:53:00;;;;;;;19.60;6.10;;;7.90;85.80;;;9.59;60.34;98941.38;5070318;28;20041;-62
2024/01/25 07:55:29;;;;;;;13.00;3.97;;;8.00;85.80;;;9.60;60.44;98940.44;5069429;28;20525;-63
2024/01/25 07:57:57;;;;;;;12.70;3.83;;;8.10;85.20;;;9.53;60.68;98945.38;5070392;28;20040;-63
2024/01/25 08:00:25;;;;;;;16.53;4.13;;;8.00;85.70;;;9.57;60.36;98944.16;5052565;28;20504;-62
2024/01/25 08:02:52;;;;;;;16.63;4.23;;;8.10;85.40;;;9.59;60.51;98941.38;5068816;28;20055;-63
2024/01/25 08:05:20;;;;;;;13.33;3.60;;;8.10;85.20;;;9.58;60.63;98932.56;5070489;28;20032;-63
2024/01/25 08:07:49;;;;;;;19.03;4.00;;;8.10;85.10;;;9.62;60.52;98930.50;5069117;28;20036;-64
2024/01/25 08:10:16;;;;;;;11.90;3.97;;;8.10;84.70;;;9.65;60.15;98922.28;5070812;28;20235;-64
2024/01/25 08:12:47;;;;;;;17.17;3.70;;;8.10;84.50;;;9.64;60.37;98921.44;5070220;28;20048;-64
2024/01/25 08:15:22;;;;;;;11.13;3.90;;;8.20;84.50;;;9.61;60.19;98931.47;5071044;28;20056;-64
2024/01/25 08:17:49;;;;;;;12.50;3.77;;;8.10;84.30;;;9.63;60.26;98924.22;5070254;28;20051;-64
2024/01/25 08:20:17;;;;;;;10.33;3.23;;;8.10;84.60;;;9.56;60.63;98923.03;5070477;28;20496;-65
2024/01/25 08:22:45;;;;;;;11.30;3.13;;;8.10;84.60;;;9.52;60.58;98908.28;5072203;28;20044;-65
2024/01/25 08:25:13;;;;;;;10.67;3.83;;;8.10;84.60;;;9.59;60.44;98909.47;5082160;28;20048;-66
2024/01/25 08:27:41;;;;;;;12.27;3.43;;;8.10;84.60;;;9.45;61.10;98905.28;5071952;28;20515;-65
2024/01/25 08:30:09;;;;;;;19.00;4.23;;;8.10;84.90;;;9.30;61.87;98904.69;5070177;28;20240;-65
2024/01/25 08:32:37;;;;;;;14.60;3.10;;;8.00;86.00;;;9.38;61.95;98901.41;5070060;28;20048;-65
2024/01/25 08:35:05;;;;;;;14.23;3.37;;;8.00;86.10;;;9.38;61.62;98909.38;5070346;28;20055;-64
2024/01/25 08:37:33;;;;;;;13.60;3.27;;;8.10;86.50;;;9.46;61.68;98914.97;5067700;28;20404;-65
2024/01/25 08:40:01;;;;;;;11.87;4.07;;;8.10;86.50;;;9.46;61.82;98915.78;5069727;28;20392;-64
2024/01/25 08:42:29;;;;;;;13.57;3.87;;;8.10;86.50;;;9.46;62.19;98928.25;5068381;28;20059;-65
2024/01/25 08:44:56;;;;;;;13.07;4.00;;;8.10;86.40;;;9.37;62.25;98924.50;5070070;28;20052;-64
2024/01/25 08:47:24;;;;;;;14.43;3.97;;;8.10;87.00;;;9.38;62.52;98926.22;5069076;28;20043;-64
2024/01/25 08:49:51;;;;;;;17.03;5.43;;;8.10;87.00;;;9.35;62.84;98929.09;5070326;28;20032;-64
2024/01/25 08:52:19;;;;;;;17.17;4.07;;;8.10;87.20;;;9.38;62.81;98930.66;5070044;28;20424;-64
2024/01/25 08:54:47;;;;;;;16.13;3.73;;;8.10;87.80;;;9.31;63.19;98940.94;5069804;28;20397;-64
2024/01/25 08:57:15;;;;;;;11.53;4.20;;;8.10;87.90;;;9.40;63.07;98940.22;5070228;28;20049;-64
2024/01/25 08:59:43;;;;;;;11.67;4.20;;;8.20;87.80;;;9.57;62.51;98951.31;5070063;28;20067;-64
2024/01/25 09:02:10;;;;;;;13.70;3.43;;;8.30;88.10;;;9.46;62.42;98944.19;5070347;28;20067;-64
2024/01/25 09:04:40;;;;;;;11.53;4.13;;;8.30;87.20;;;9.46;62.70;98947.69;5069567;28;20040;-64
2024/01/25 09:07:08;;;;;;;17.77;4.87;;;8.30;86.90;;;9.60;62.58;98953.72;5070458;28;20048;-64
2024/01/25 09:09:35;;;;;;;15.63;5.33;;;8.30;87.10;;;9.58;62.62;98958.31;5070117;28;20327;-64
2024/01/25 09:12:07;;;;;;;12.70;3.53;;;8.30;86.80;;;9.68;62.45;98975.22;5070313;28;20043;-64
2024/01/25 09:14:36;;;;;;;14.90;3.30;;;8.30;86.70;;;9.75;62.14;98972.91;5070109;28;20432;-64
2024/01/25 09:17:04;;;;;;;12.97;3.83;;;8.40;86.60;;;9.80;62.42;98971.56;5073706;28;20131;-64
2024/01/25 09:19:32;;;;;;;11.83;4.60;;;8.40;86.70;;;9.76;62.42;98974.59;5073432;28;20049;-64
2024/01/25 09:22:04;;;;;;;11.70;3.07;;;8.50;87.50;;;9.64;62.59;98979.94;5065605;28;20044;-64
2024/01/25 09:24:33;;;;;;;23.87;5.43;;;8.40;85.30;;;9.58;62.74;98980.44;5079321;28;20388;-64
2024/01/25 09:27:00;;;;;;;16.97;4.53;;;8.40;85.80;;;9.65;62.44;98991.41;5074691;28;20412;-64
2024/01/25 09:29:28;;;;;;;13.53;3.73;;;8.40;86.10;;;9.52;62.85;98988.91;5072167;28;20040;-64
2024/01/25 09:31:56;;;;;;;13.00;3.87;;;8.40;86.40;;;9.65;62.68;98986.09;5073538;28;20036;-64
2024/01/25 09:34:24;;;;;;;8.30;4.00;;;8.50;86.80;;;9.70;63.00;98989.25;5072687;28;20037;-64
2024/01/25 09:36:52;;;;;;;16.73;4.20;;;8.50;86.60;;;9.67;62.69;98986.81;5072401;28;20056;-64
2024/01/25 09:39:20;;;;;;;16.17;4.13;;;8.60;85.70;;;9.73;62.73;98986.34;5073249;28;20037;-64
2024/01/25 09:41:49;;;;;;;12.87;5.13;;;8.60;85.70;;;9.73;62.34;98981.03;5078447;28;20518;-64
2024/01/25 09:44:17;;;;;;;17.87;4.63;;;8.60;85.20;;;9.86;62.72;98984.38;5072740;28;20048;-64
2024/01/25 09:46:45;;;;;;;13.63;3.60;;;8.70;85.20;;;9.90;62.50;98990.28;5073089;28;20063;-64
2024/01/25 09:49:14;;;;;;;16.80;4.47;;;8.80;84.20;;;9.84;62.36;98996.94;5073112;28;20040;-65
2024/01/25 09:51:43;;;;;;;16.53;4.83;;;8.70;84.10;;;9.97;62.04;98991.50;5072951;28;20045;-65
2024/01/25 09:54:13;;;;;;;12.27;4.37;;;8.80;83.70;;;10.00;62.06;98995.69;5071209;28;20049;-65
2024/01/25 09:56:42;;;;;;;17.43;4.17;;;8.90;83.70;;;10.16;61.61;99004.16;5054894;28;20052;-65
2024/01/25 09:59:09;;;;;;;10.20;4.57;;;9.00;83.30;;;10.11;61.20;99005.50;5076706;28;20044;-65
2024/01/25 10:01:37;;;;;;;10.93;4.00;;;9.00;81.00;;;10.27;60.90;99013.06;5071901;28;20052;-65
2024/01/25 10:04:08;;;;;;;13.53;4.00;;;9.00;81.60;;;10.35;60.75;99011.50;5071224;28;20041;-65
2024/01/25 10:06:36;;;;;;;14.60;3.77;;;9.10;81.10;;;10.15;60.74;99012.25;5072539;28;20055;-65
2024/01/25 10:09:05;;;;;;;16.40;3.63;;;9.10;79.90;;;10.41;60.74;99008.34;5072495;28;20111;-65
2024/01/25 10:11:35;;;;;;;14.53;4.20;;;9.20;81.30;;;10.54;60.53;99013.47;5067469;28;20047;-65
2024/01/25 10:14:09;;;;;;;20.83;5.03;;;9.40;80.80;;;10.59;60.23;99016.59;5062012;28;20174;-66
2024/01/25 10:16:37;;;;;;;14.27;4.17;;;9.40;79.90;;;10.64;59.65;99009.09;5064941;28;20045;-65
2024/01/25 10:19:09;;;;;;;11.00;4.57;;;9.40;79.10;;;10.64;59.43;99005.56;5067323;28;20041;-65
2024/01/25 10:21:37;;;;;;;15.50;3.95;;;9.50;76.50;;;10.53;58.62;98992.31;5065905;28;20048;-64
2024/01/25 10:24:06;;;;;;;13.97;5.33;;;9.30;75.40;;;10.58;58.24;98998.91;5065654;28;20063;-65
2024/01/25 10:26:35;;;;;;;14.83;3.23;;;9.30;75.60;;;10.55;58.54;98995.69;5066757;28;20055;-64